sensor_id;sensor_type;location;lat;lon;timestamp;temperature;humidity
23395;DHT22;11870;53.084;18.206;2023-02-03T00:06:00;-2.40;99.90
23395;DHT22;11870;53.084;18.206;2023-02-03T00:23:06;-2.70;99.90
23395;DHT22;11870;53.084;18.206;2023-02-03T00:37:50;-2.60;99.90
23395;DHT22;11870;53.084;18.206;2023-02-03T00:40:17;-2.80;99.90
23395;DHT22;11870;53.084;18.206;2023-02-03T01:09:36;-2.70;99.90
23395;DHT22;11870;53.084;18.206;2023-02-03T01:12:03;-2.70;99.90
23395;DHT22;11870;53.084;18.206;2023-02-03T01:31:36;-2.70;99.90
23395;DHT22;11870;53.084;18.206;2023-02-03T01:34:05;-2.70;99.90
23395;DHT22;11870;53.084;18.206;2023-02-03T01:36:33;-2.70;99.90
23395;DHT22;11870;53.084;18.206;2023-02-03T01:41:29;-2.80;99.90
23395;DHT22;11870;53.084;18.206;2023-02-03T01:43:57;-2.80;99.90
23395;DHT22;11870;53.084;18.206;2023-02-03T01:46:34;-2.90;99.90
23395;DHT22;11870;53.084;18.206;2023-02-03T01:49:10;-2.90;99.90
23395;DHT22;11870;53.084;18.206;2023-02-03T01:51:39;-2.80;99.90
23395;DHT22;11870;53.084;18.206;2023-02-03T01:54:11;-2.80;99.90
23395;DHT22;11870;53.084;18.206;2023-02-03T01:56:39;-2.90;99.90
23395;DHT22;11870;53.084;18.206;2023-02-03T02:04:02;-2.80;99.90
23395;DHT22;11870;53.084;18.206;2023-02-03T02:08:56;-2.80;99.90
23395;DHT22;11870;53.084;18.206;2023-02-03T02:11:26;-2.70;99.90
23395;DHT22;11870;53.084;18.206;2023-02-03T02:13:54;-2.70;99.90
23395;DHT22;11870;53.084;18.206;2023-02-03T02:25:10;-2.70;99.90
23395;DHT22;11870;53.084;18.206;2023-02-03T02:40:54;-2.40;99.90
23395;DHT22;11870;53.084;18.206;2023-02-03T02:43:50;-2.40;99.90
23395;DHT22;11870;53.084;18.206;2023-02-03T02:46:24;-2.40;99.90
23395;DHT22;11870;53.084;18.206;2023-02-03T02:49:12;-2.40;99.90
23395;DHT22;11870;53.084;18.206;2023-02-03T02:51:40;-2.40;99.90
23395;DHT22;11870;53.084;18.206;2023-02-03T02:54:12;-2.40;99.90
23395;DHT22;11870;53.084;18.206;2023-02-03T02:56:42;-2.40;99.90
23395;DHT22;11870;53.084;18.206;2023-02-03T03:04:04;-2.40;99.90
23395;DHT22;11870;53.084;18.206;2023-02-03T03:06:35;-2.30;99.90
23395;DHT22;11870;53.084;18.206;2023-02-03T03:09:12;-2.30;99.90
23395;DHT22;11870;53.084;18.206;2023-02-03T03:11:48;-2.10;99.90
23395;DHT22;11870;53.084;18.206;2023-02-03T03:14:17;-2.00;99.90
23395;DHT22;11870;53.084;18.206;2023-02-03T03:16:49;-2.10;99.90
23395;DHT22;11870;53.084;18.206;2023-02-03T03:19:20;-2.00;99.90
23395;DHT22;11870;53.084;18.206;2023-02-03T03:21:54;-1.90;99.90
23395;DHT22;11870;53.084;18.206;2023-02-03T03:24:26;-2.00;99.90
23395;DHT22;11870;53.084;18.206;2023-02-03T03:34:14;-1.90;99.90
23395;DHT22;11870;53.084;18.206;2023-02-03T03:36:49;-1.90;99.90
23395;DHT22;11870;53.084;18.206;2023-02-03T03:39:38;-1.90;99.90
23395;DHT22;11870;53.084;18.206;2023-02-03T03:42:57;-1.80;99.90
23395;DHT22;11870;53.084;18.206;2023-02-03T03:45:21;-1.90;99.90
23395;DHT22;11870;53.084;18.206;2023-02-03T03:48:13;-1.80;99.90
23395;DHT22;11870;53.084;18.206;2023-02-03T03:50:55;-1.70;99.90
23395;DHT22;11870;53.084;18.206;2023-02-03T03:53:22;-1.60;99.90
23395;DHT22;11870;53.084;18.206;2023-02-03T03:55:51;-1.60;99.90
23395;DHT22;11870;53.084;18.206;2023-02-03T03:58:25;-1.70;99.90
23395;DHT22;11870;53.084;18.206;2023-02-03T04:00:53;-1.60;99.90
23395;DHT22;11870;53.084;18.206;2023-02-03T04:03:23;-1.50;99.90
23395;DHT22;11870;53.084;18.206;2023-02-03T04:13:10;-1.40;99.90
23395;DHT22;11870;53.084;18.206;2023-02-03T04:18:04;-1.30;99.90
23395;DHT22;11870;53.084;18.206;2023-02-03T04:30:17;-1.30;99.90
23395;DHT22;11870;53.084;18.206;2023-02-03T04:32:44;-1.30;99.90
23395;DHT22;11870;53.084;18.206;2023-02-03T05:02:04;-1.20;99.90
23395;DHT22;11870;53.084;18.206;2023-02-03T05:04:30;-1.30;99.90
23395;DHT22;11870;53.084;18.206;2023-02-03T05:09:26;-1.20;99.90
23395;DHT22;11870;53.084;18.206;2023-02-03T05:26:34;-1.10;99.90
23395;DHT22;11870;53.084;18.206;2023-02-03T06:42:44;-0.30;99.90
23395;DHT22;11870;53.084;18.206;2023-02-03T06:47:42;-0.10;99.90
23395;DHT22;11870;53.084;18.206;2023-02-03T06:50:10;-0.20;99.90
23395;DHT22;11870;53.084;18.206;2023-02-03T06:52:48;-0.20;99.90
23395;DHT22;11870;53.084;18.206;2023-02-03T06:57:45;-0.10;99.90
23395;DHT22;11870;53.084;18.206;2023-02-03T07:00:13;-0.20;99.90
23395;DHT22;11870;53.084;18.206;2023-02-03T08:50:07;1.10;99.90
23395;DHT22;11870;53.084;18.206;2023-02-03T08:52:33;1.30;99.90
23395;DHT22;11870;53.084;18.206;2023-02-03T08:57:25;1.10;99.90
23395;DHT22;11870;53.084;18.206;2023-02-03T09:02:18;1.40;99.90
23395;DHT22;11870;53.084;18.206;2023-02-03T09:12:05;1.40;99.90
23395;DHT22;11870;53.084;18.206;2023-02-03T09:17:00;1.40;99.90
23395;DHT22;11870;53.084;18.206;2023-02-03T09:46:46;1.20;99.90
23395;DHT22;11870;53.084;18.206;2023-02-03T09:51:45;1.10;99.90
23395;DHT22;11870;53.084;18.206;2023-02-03T09:54:41;1.10;99.90
23395;DHT22;11870;53.084;18.206;2023-02-03T09:57:17;1.10;99.90
23395;DHT22;11870;53.084;18.206;2023-02-03T10:05:24;1.10;99.90
23395;DHT22;11870;53.084;18.206;2023-02-03T10:08:12;1.20;99.90
23395;DHT22;11870;53.084;18.206;2023-02-03T10:10:44;1.10;99.90
23395;DHT22;11870;53.084;18.206;2023-02-03T10:13:31;1.10;99.90
23395;DHT22;11870;53.084;18.206;2023-02-03T10:18:40;1.00;99.90
23395;DHT22;11870;53.084;18.206;2023-02-03T10:21:20;1.00;99.90
23395;DHT22;11870;53.084;18.206;2023-02-03T10:26:25;1.00;99.90
23395;DHT22;11870;53.084;18.206;2023-02-03T10:29:35;1.00;99.90
23395;DHT22;11870;53.084;18.206;2023-02-03T10:37:16;1.00;99.90
23395;DHT22;11870;53.084;18.206;2023-02-03T10:42:15;1.00;99.90
23395;DHT22;11870;53.084;18.206;2023-02-03T10:44:49;1.00;99.90
23395;DHT22;11870;53.084;18.206;2023-02-03T10:47:33;1.00;99.90
23395;DHT22;11870;53.084;18.206;2023-02-03T10:55:05;1.10;99.90
23395;DHT22;11870;53.084;18.206;2023-02-03T10:57:35;1.10;99.90
23395;DHT22;11870;53.084;18.206;2023-02-03T11:05:21;1.20;99.90
23395;DHT22;11870;53.084;18.206;2023-02-03T11:10:33;1.10;99.90
23395;DHT22;11870;53.084;18.206;2023-02-03T11:18:42;1.10;99.90
23395;DHT22;11870;53.084;18.206;2023-02-03T11:27:03;1.20;99.90
23395;DHT22;11870;53.084;18.206;2023-02-03T11:29:36;1.10;99.90
23395;DHT22;11870;53.084;18.206;2023-02-03T11:32:16;1.10;99.90
23395;DHT22;11870;53.084;18.206;2023-02-03T11:37:38;1.10;99.90
23395;DHT22;11870;53.084;18.206;2023-02-03T11:42:39;1.00;99.90
23395;DHT22;11870;53.084;18.206;2023-02-03T11:47:45;1.00;99.90
23395;DHT22;11870;53.084;18.206;2023-02-03T11:50:23;1.10;99.90
23395;DHT22;11870;53.084;18.206;2023-02-03T12:14:44;1.10;99.90
23395;DHT22;11870;53.084;18.206;2023-02-03T12:17:43;1.00;99.90
23395;DHT22;11870;53.084;18.206;2023-02-03T12:20:22;1.20;99.90
23395;DHT22;11870;53.084;18.206;2023-02-03T12:28:11;1.10;99.90
23395;DHT22;11870;53.084;18.206;2023-02-03T12:30:48;1.10;99.90
23395;DHT22;11870;53.084;18.206;2023-02-03T12:33:20;1.10;99.90
23395;DHT22;11870;53.084;18.206;2023-02-03T12:35:53;1.10;99.90
23395;DHT22;11870;53.084;18.206;2023-02-03T12:39:05;1.20;99.90
23395;DHT22;11870;53.084;18.206;2023-02-03T12:41:40;1.10;99.90
23395;DHT22;11870;53.084;18.206;2023-02-03T12:47:22;1.20;99.90
23395;DHT22;11870;53.084;18.206;2023-02-03T12:49:59;1.20;99.90
23395;DHT22;11870;53.084;18.206;2023-02-03T12:52:35;1.10;99.90
23395;DHT22;11870;53.084;18.206;2023-02-03T12:58:06;1.20;99.90
23395;DHT22;11870;53.084;18.206;2023-02-03T13:00:55;1.20;99.90
23395;DHT22;11870;53.084;18.206;2023-02-03T13:08:59;1.40;99.90
23395;DHT22;11870;53.084;18.206;2023-02-03T13:11:37;1.30;99.90
23395;DHT22;11870;53.084;18.206;2023-02-03T13:14:27;1.20;99.90
23395;DHT22;11870;53.084;18.206;2023-02-03T13:17:02;1.30;99.90
23395;DHT22;11870;53.084;18.206;2023-02-03T13:19:46;1.20;99.90
23395;DHT22;11870;53.084;18.206;2023-02-03T13:22:15;1.30;99.90
23395;DHT22;11870;53.084;18.206;2023-02-03T13:24:48;1.30;99.90
23395;DHT22;11870;53.084;18.206;2023-02-03T13:27:56;0.90;99.90
23395;DHT22;11870;53.084;18.206;2023-02-03T13:43:35;1.40;99.90
23395;DHT22;11870;53.084;18.206;2023-02-03T13:46:02;1.30;99.90
23395;DHT22;11870;53.084;18.206;2023-02-03T13:48:31;1.20;99.90
23395;DHT22;11870;53.084;18.206;2023-02-03T13:51:16;1.10;99.90
23395;DHT22;11870;53.084;18.206;2023-02-03T13:53:46;1.20;99.90
23395;DHT22;11870;53.084;18.206;2023-02-03T13:56:22;1.20;99.90
23395;DHT22;11870;53.084;18.206;2023-02-03T13:59:01;1.10;99.90
23395;DHT22;11870;53.084;18.206;2023-02-03T14:03:56;1.20;99.90
23395;DHT22;11870;53.084;18.206;2023-02-03T14:09:23;1.20;99.90
23395;DHT22;11870;53.084;18.206;2023-02-03T14:12:20;1.30;99.90
23395;DHT22;11870;53.084;18.206;2023-02-03T14:20:37;1.20;99.90
23395;DHT22;11870;53.084;18.206;2023-02-03T14:23:10;1.20;99.90
23395;DHT22;11870;53.084;18.206;2023-02-03T14:25:47;1.00;99.90
23395;DHT22;11870;53.084;18.206;2023-02-03T14:28:17;1.10;99.90
23395;DHT22;11870;53.084;18.206;2023-02-03T14:31:04;1.10;99.90
23395;DHT22;11870;53.084;18.206;2023-02-03T14:38:54;1.20;99.90
23395;DHT22;11870;53.084;18.206;2023-02-03T14:41:48;1.10;99.90
23395;DHT22;11870;53.084;18.206;2023-02-03T14:47:04;1.10;99.90
23395;DHT22;11870;53.084;18.206;2023-02-03T14:50:17;1.30;99.90
23395;DHT22;11870;53.084;18.206;2023-02-03T14:55:48;1.10;99.90
23395;DHT22;11870;53.084;18.206;2023-02-03T14:58:29;1.20;99.90
23395;DHT22;11870;53.084;18.206;2023-02-03T15:03:24;1.10;99.90
23395;DHT22;11870;53.084;18.206;2023-02-03T15:05:53;1.10;99.90
23395;DHT22;11870;53.084;18.206;2023-02-03T15:13:29;0.70;99.90
23395;DHT22;11870;53.084;18.206;2023-02-03T15:15:59;1.10;99.90
23395;DHT22;11870;53.084;18.206;2023-02-03T15:18:34;1.20;99.90
23395;DHT22;11870;53.084;18.206;2023-02-03T15:21:03;1.10;99.90
23395;DHT22;11870;53.084;18.206;2023-02-03T15:23:38;1.10;99.90
23395;DHT22;11870;53.084;18.206;2023-02-03T15:26:17;1.00;99.90
23395;DHT22;11870;53.084;18.206;2023-02-03T15:28:59;1.10;99.90
23395;DHT22;11870;53.084;18.206;2023-02-03T15:31:43;1.20;99.90
23395;DHT22;11870;53.084;18.206;2023-02-03T15:34:33;1.10;99.90
23395;DHT22;11870;53.084;18.206;2023-02-03T15:37:26;1.30;99.90
23395;DHT22;11870;53.084;18.206;2023-02-03T15:40:08;1.30;99.90
23395;DHT22;11870;53.084;18.206;2023-02-03T15:42:58;1.30;99.90
23395;DHT22;11870;53.084;18.206;2023-02-03T15:45:29;1.30;99.90
23395;DHT22;11870;53.084;18.206;2023-02-03T15:50:48;1.20;99.90
23395;DHT22;11870;53.084;18.206;2023-02-03T15:53:26;1.20;99.90
23395;DHT22;11870;53.084;18.206;2023-02-03T15:55:56;1.20;99.90
23395;DHT22;11870;53.084;18.206;2023-02-03T15:58:28;1.30;99.90
23395;DHT22;11870;53.084;18.206;2023-02-03T16:01:02;1.30;99.90
23395;DHT22;11870;53.084;18.206;2023-02-03T16:03:36;1.30;99.90
23395;DHT22;11870;53.084;18.206;2023-02-03T16:06:23;1.20;99.90
23395;DHT22;11870;53.084;18.206;2023-02-03T16:08:53;1.30;99.90
23395;DHT22;11870;53.084;18.206;2023-02-03T16:11:34;1.20;99.90
23395;DHT22;11870;53.084;18.206;2023-02-03T16:14:10;1.30;99.90
23395;DHT22;11870;53.084;18.206;2023-02-03T16:16:48;1.30;99.90
23395;DHT22;11870;53.084;18.206;2023-02-03T16:19:21;1.20;99.90
23395;DHT22;11870;53.084;18.206;2023-02-03T16:33:09;1.30;99.90
23395;DHT22;11870;53.084;18.206;2023-02-03T16:38:47;1.30;99.90
23395;DHT22;11870;53.084;18.206;2023-02-03T17:41:25;2.60;99.90
23395;DHT22;11870;53.084;18.206;2023-02-03T17:46:23;2.80;99.90
23395;DHT22;11870;53.084;18.206;2023-02-03T17:51:18;2.70;99.90
23395;DHT22;11870;53.084;18.206;2023-02-03T17:56:14;2.80;99.90
23395;DHT22;11870;53.084;18.206;2023-02-03T22:11:59;-0.30;99.90
23395;DHT22;11870;53.084;18.206;2023-02-03T22:14:26;0.60;99.90
23395;DHT22;11870;53.084;18.206;2023-02-03T22:16:51;0.60;99.90
23395;DHT22;11870;53.084;18.206;2023-02-03T22:19:17;0.50;99.90
23395;DHT22;11870;53.084;18.206;2023-02-03T22:21:43;0.40;99.90
23395;DHT22;11870;53.084;18.206;2023-02-03T22:24:09;0.50;99.90
23395;DHT22;11870;53.084;18.206;2023-02-03T22:26:35;0.40;99.90
23395;DHT22;11870;53.084;18.206;2023-02-03T22:29:01;0.40;99.90
23395;DHT22;11870;53.084;18.206;2023-02-03T22:31:27;0.50;99.90
23395;DHT22;11870;53.084;18.206;2023-02-03T22:33:54;0.40;99.90
23395;DHT22;11870;53.084;18.206;2023-02-03T22:36:20;0.40;99.90
23395;DHT22;11870;53.084;18.206;2023-02-03T22:38:48;0.40;99.90
23395;DHT22;11870;53.084;18.206;2023-02-03T22:41:13;0.40;99.90
23395;DHT22;11870;53.084;18.206;2023-02-03T22:43:40;0.40;99.90
23395;DHT22;11870;53.084;18.206;2023-02-03T22:46:06;0.40;99.90
23395;DHT22;11870;53.084;18.206;2023-02-03T22:48:33;0.50;99.90
23395;DHT22;11870;53.084;18.206;2023-02-03T22:50:59;0.50;99.90
23395;DHT22;11870;53.084;18.206;2023-02-03T22:53:27;0.50;99.90
23395;DHT22;11870;53.084;18.206;2023-02-03T22:55:53;0.40;99.90
23395;DHT22;11870;53.084;18.206;2023-02-03T22:58:19;0.40;99.90
23395;DHT22;11870;53.084;18.206;2023-02-03T23:00:44;0.50;99.90
23395;DHT22;11870;53.084;18.206;2023-02-03T23:03:11;0.40;99.90
23395;DHT22;11870;53.084;18.206;2023-02-03T23:05:36;0.50;99.90
23395;DHT22;11870;53.084;18.206;2023-02-03T23:08:03;0.50;99.90
23395;DHT22;11870;53.084;18.206;2023-02-03T23:10:29;0.50;99.90
23395;DHT22;11870;53.084;18.206;2023-02-03T23:12:56;0.50;99.90
23395;DHT22;11870;53.084;18.206;2023-02-03T23:15:24;0.50;99.90
23395;DHT22;11870;53.084;18.206;2023-02-03T23:17:50;0.50;99.90
23395;DHT22;11870;53.084;18.206;2023-02-03T23:20:17;0.60;99.90
23395;DHT22;11870;53.084;18.206;2023-02-03T23:22:43;0.60;99.90
23395;DHT22;11870;53.084;18.206;2023-02-03T23:25:10;0.50;99.90
23395;DHT22;11870;53.084;18.206;2023-02-03T23:27:36;0.60;99.90
23395;DHT22;11870;53.084;18.206;2023-02-03T23:30:04;0.50;99.90
23395;DHT22;11870;53.084;18.206;2023-02-03T23:32:30;0.50;99.90
23395;DHT22;11870;53.084;18.206;2023-02-03T23:34:58;0.50;99.90
23395;DHT22;11870;53.084;18.206;2023-02-03T23:37:43;0.50;99.90
23395;DHT22;11870;53.084;18.206;2023-02-03T23:40:09;0.60;99.90
23395;DHT22;11870;53.084;18.206;2023-02-03T23:42:35;0.60;99.90
23395;DHT22;11870;53.084;18.206;2023-02-03T23:45:02;0.50;99.90
23395;DHT22;11870;53.084;18.206;2023-02-03T23:47:33;0.50;99.90
23395;DHT22;11870;53.084;18.206;2023-02-03T23:49:59;0.50;99.90
23395;DHT22;11870;53.084;18.206;2023-02-03T23:52:25;0.60;99.90
23395;DHT22;11870;53.084;18.206;2023-02-03T23:54:50;0.50;99.90
23395;DHT22;11870;53.084;18.206;2023-02-03T23:57:16;0.50;99.90
23395;DHT22;11870;53.084;18.206;2023-02-03T23:59:42;0.50;99.90
